Time;durP1;ratioP1;P1;durP2;ratioP2;P2;SDS_P1;SDS_P2;PMS_P1;PMS_P2;Temp;Humidity;BMP_temperature;BMP_pressure;BME280_temperature;BME280_humidity;BME280_pressure;Samples;Min_cycle;Max_cycle;Signal;HPM_P1;HPM_P2
2022/11/21 00:00:29;;;;;;;;;;;205.20;2252.80;;;;;;5061720;28;20008;-84
2022/11/21 00:02:59;;;;;;;;;;;205.20;2252.80;;;;;;5047406;28;19909;-82
2022/11/21 00:05:27;;;;;;;;;;;205.10;2252.80;;;;;;5054369;28;19955;-83
2022/11/21 00:07:53;;;;;;;;;;;205.20;2252.80;;;;;;5059162;28;19909;-82
2022/11/21 00:10:19;;;;;;;;;;;205.20;2252.80;;;;;;5036480;28;19909;-83
2022/11/21 00:12:44;;;;;;;;;;;205.10;2252.80;;;;;;5053482;28;19916;-83
2022/11/21 00:15:10;;;;;;;;;;;205.20;2252.80;;;;;;5052328;28;19920;-83
2022/11/21 00:17:35;;;;;;;;;;;205.10;2252.80;;;;;;5046038;28;19917;-84
2022/11/21 00:20:01;;;;;;;;;;;205.20;2252.80;;;;;;5042582;28;19929;-83
2022/11/21 00:22:26;;;;;;;;;;;205.10;2252.80;;;;;;5039187;28;19909;-84
2022/11/21 00:24:52;;;;;;;;;;;205.20;2252.80;;;;;;5037927;28;19944;-83
2022/11/21 00:27:17;;;;;;;;;;;205.10;2252.80;;;;;;5037629;28;19905;-83
2022/11/21 00:29:43;;;;;;;;;;;205.00;2252.80;;;;;;5036338;28;20405;-83
2022/11/21 00:32:08;;;;;;;;;;;205.00;2252.80;;;;;;5037474;28;19905;-84
2022/11/21 00:34:34;;;;;;;;;;;205.00;2252.80;;;;;;5025609;28;19952;-82
2022/11/21 00:36:59;;;;;;;;;;;204.90;2252.80;;;;;;5055726;28;19905;-82
2022/11/21 00:39:25;;;;;;;;;;;204.90;2252.80;;;;;;5074122;28;19893;-80
2022/11/21 00:41:51;;;;;;;;;;;204.90;2252.80;;;;;;5058637;28;20007;-82
2022/11/21 00:44:16;;;;;;;;;;;204.90;2252.80;;;;;;5044139;28;19912;-82
2022/11/21 00:46:42;;;;;;;;;;;204.90;2252.80;;;;;;5031354;28;19906;-83
2022/11/21 00:49:07;;;;;;;;;;;204.80;2252.80;;;;;;5048564;28;19936;-83
2022/11/21 00:51:33;;;;;;;;;;;204.80;2252.80;;;;;;5052658;28;20366;-83
2022/11/21 00:53:58;;;;;;;;;;;204.80;2252.80;;;;;;5051814;28;20259;-83
2022/11/21 00:56:24;;;;;;;;;;;180.10;2252.80;;;;;;5053106;28;20059;-83
2022/11/21 00:58:49;;;;;;;;;;;180.10;2252.80;;;;;;5051458;28;19913;-83
2022/11/21 01:01:15;;;;;;;;;;;204.80;2252.80;;;;;;5013639;28;19917;-83
2022/11/21 01:03:41;;;;;;;;;;;180.10;2252.80;;;;;;5012967;28;19944;-83
2022/11/21 01:06:08;;;;;;;;;;;180.10;2252.80;;;;;;5016894;28;19905;-83
2022/11/21 01:08:34;;;;;;;;;;;179.90;2252.80;;;;;;5033980;28;19933;-83
2022/11/21 01:11:03;;;;;;;;;;;180.10;2252.80;;;;;;5040498;28;19917;-83
2022/11/21 01:13:29;;;;;;;;;;;180.00;2252.80;;;;;;5025422;28;20321;-83
2022/11/21 01:15:55;;;;;;;;;;;180.10;2252.80;;;;;;5050675;28;19904;-83
2022/11/21 01:18:20;;;;;;;;;;;180.10;2252.80;;;;;;5042806;28;19913;-83
2022/11/21 01:20:46;;;;;;;;;;;180.10;2252.80;;;;;;5046226;28;20386;-83
2022/11/21 01:23:11;;;;;;;;;;;204.80;2252.80;;;;;;5056405;28;19927;-83
2022/11/21 01:25:37;;;;;;;;;;;204.80;2252.80;;;;;;5055600;28;19911;-83
2022/11/21 01:28:02;;;;;;;;;;;180.00;2252.80;;;;;;5056267;28;19908;-83
2022/11/21 01:30:28;;;;;;;;;;;180.00;2252.80;;;;;;5055130;28;19915;-83
2022/11/21 01:32:53;;;;;;;;;;;180.00;2252.80;;;;;;5055239;28;19904;-83
2022/11/21 01:35:19;;;;;;;;;;;180.00;2252.80;;;;;;5055982;28;19905;-82
2022/11/21 01:37:48;;;;;;;;;;;180.00;2252.80;;;;;;5055219;28;20408;-83
2022/11/21 01:40:14;;;;;;;;;;;180.00;2252.80;;;;;;5055328;28;19943;-83
2022/11/21 01:42:43;;;;;;;;;;;179.90;2252.80;;;;;;5048813;28;19913;-83
2022/11/21 01:45:27;;;;;;;;;;;179.90;2252.80;;;;;;5036564;28;20409;-83
2022/11/21 01:47:54;;;;;;;;;;;179.90;2252.80;;;;;;5055656;28;19971;-83
2022/11/21 01:50:19;;;;;;;;;;;179.90;2252.80;;;;;;5054234;28;20381;-83
2022/11/21 01:52:45;;;;;;;;;;;179.90;2252.80;;;;;;5054658;28;19905;-84
2022/11/21 01:55:10;;;;;;;;;;;180.00;2252.80;;;;;;5054578;28;20019;-83
2022/11/21 01:57:41;;;;;;;;;;;179.90;2252.80;;;;;;5054493;28;20364;-83
2022/11/21 02:00:09;;;;;;;;;;;179.90;2252.80;;;;;;5054627;28;20347;-83
2022/11/21 02:02:36;;;;;;;;;;;180.00;2252.80;;;;;;5042341;28;20043;-83
2022/11/21 02:05:03;;;;;;;;;;;180.00;2252.80;;;;;;5053895;28;19961;-83
2022/11/21 02:07:31;;;;;;;;;;;179.90;2252.80;;;;;;5054316;28;19948;-83
2022/11/21 02:09:59;;;;;;;;;;;179.90;2252.80;;;;;;5054761;28;19913;-83
2022/11/21 02:12:24;;;;;;;;;;;179.90;2252.80;;;;;;5053763;28;19908;-83
2022/11/21 02:14:50;;;;;;;;;;;179.90;2252.80;;;;;;5054748;28;20359;-83
2022/11/21 02:17:17;;;;;;;;;;;179.90;2252.80;;;;;;5053635;28;19908;-84
2022/11/21 02:19:54;;;;;;;;;;;180.00;2252.80;;;;;;5057194;28;19905;-84
2022/11/21 02:22:26;;;;;;;;;;;179.90;2252.80;;;;;;5053696;28;19979;-83
2022/11/21 02:25:01;;;;;;;;;;;179.90;2252.80;;;;;;5054584;28;20007;-83
2022/11/21 02:27:27;;;;;;;;;;;179.80;2252.80;;;;;;5054642;28;19916;-81
2022/11/21 02:29:52;;;;;;;;;;;205.00;2252.80;;;;;;5054596;28;19905;-83
2022/11/21 02:32:22;;;;;;;;;;;179.80;2252.80;;;;;;5040748;28;19912;-83
2022/11/21 02:34:47;;;;;;;;;;;179.80;2252.80;;;;;;5054033;28;19904;-83
2022/11/21 02:37:13;;;;;;;;;;;179.80;2252.80;;;;;;5054202;28;19920;-83
2022/11/21 02:39:39;;;;;;;;;;;179.70;2252.80;;;;;;5053585;28;19947;-84
2022/11/21 02:42:08;;;;;;;;;;;179.70;2252.80;;;;;;5052279;28;19908;-82
2022/11/21 02:44:39;;;;;;;;;;;179.90;2252.80;;;;;;5025518;28;19979;-83
2022/11/21 02:47:05;;;;;;;;;;;179.90;2252.80;;;;;;5033906;28;19911;-83
2022/11/21 02:49:36;;;;;;;;;;;179.80;2252.80;;;;;;5053762;28;19909;-83
2022/11/21 02:52:02;;;;;;;;;;;179.80;2252.80;;;;;;5053753;28;19905;-84
2022/11/21 02:54:28;;;;;;;;;;;179.80;2252.80;;;;;;5053786;28;19912;-84
2022/11/21 02:56:54;;;;;;;;;;;179.70;2252.80;;;;;;5053356;28;19915;-83
2022/11/21 02:59:19;;;;;;;;;;;179.90;2252.80;;;;;;5053776;28;19948;-83
2022/11/21 03:01:46;;;;;;;;;;;179.90;2252.80;;;;;;5053440;28;19968;-83
2022/11/21 03:04:12;;;;;;;;;;;179.80;2252.80;;;;;;5054025;28;19905;-83
2022/11/21 03:06:37;;;;;;;;;;;179.90;2252.80;;;;;;5053716;28;20430;-83
2022/11/21 03:09:03;;;;;;;;;;;180.00;2252.80;;;;;;5053658;28;19915;-83
2022/11/21 03:11:28;;;;;;;;;;;179.90;2252.80;;;;;;5052909;28;19913;-84
2022/11/21 03:13:54;;;;;;;;;;;180.10;2252.80;;;;;;5053504;28;19909;-83
2022/11/21 03:16:19;;;;;;;;;;;180.10;2252.80;;;;;;5053008;28;20363;-84
2022/11/21 03:18:45;;;;;;;;;;;180.00;2252.80;;;;;;5052534;28;19920;-83
2022/11/21 03:21:11;;;;;;;;;;;180.00;2252.80;;;;;;5053494;28;19908;-84
2022/11/21 03:23:36;;;;;;;;;;;179.80;2252.80;;;;;;5052677;28;19951;-83
2022/11/21 03:26:02;;;;;;;;;;;179.90;2252.80;;;;;;5053451;28;19995;-83
2022/11/21 03:28:27;;;;;;;;;;;179.90;2252.80;;;;;;5052857;28;20346;-83
2022/11/21 03:30:53;;;;;;;;;;;179.90;2252.80;;;;;;5054266;28;20063;-84
2022/11/21 03:33:18;;;;;;;;;;;179.90;2252.80;;;;;;5039653;28;19905;-84
2022/11/21 03:35:44;;;;;;;;;;;179.90;2252.80;;;;;;5053199;28;19958;-84
2022/11/21 03:38:09;;;;;;;;;;;180.00;2252.80;;;;;;5051231;28;19912;-83
2022/11/21 03:40:35;;;;;;;;;;;179.80;2252.80;;;;;;5023696;28;19920;-83
2022/11/21 03:43:04;;;;;;;;;;;179.70;2252.80;;;;;;5035266;28;19925;-83
2022/11/21 03:45:30;;;;;;;;;;;179.70;2252.80;;;;;;5049455;28;19977;-84
2022/11/21 03:47:56;;;;;;;;;;;179.90;2252.80;;;;;;5052510;28;19905;-83
2022/11/21 03:50:21;;;;;;;;;;;179.80;2252.80;;;;;;5053763;28;19909;-83
2022/11/21 03:52:47;;;;;;;;;;;179.70;2252.80;;;;;;5053252;28;19948;-84
2022/11/21 03:55:12;;;;;;;;;;;179.90;2252.80;;;;;;5053345;28;20406;-82
2022/11/21 03:57:38;;;;;;;;;;;179.90;2252.80;;;;;;5053247;28;19908;-84
2022/11/21 04:00:04;;;;;;;;;;;179.70;2252.80;;;;;;5052760;28;19917;-84
2022/11/21 04:02:29;;;;;;;;;;;179.80;2252.80;;;;;;5075659;28;19899;-83
2022/11/21 04:04:55;;;;;;;;;;;179.70;2252.80;;;;;;5078206;28;19956;-81
2022/11/21 04:07:20;;;;;;;;;;;179.70;2252.80;;;;;;5057697;28;19905;-83
2022/11/21 04:09:46;;;;;;;;;;;179.70;2252.80;;;;;;5053935;28;19919;-83
2022/11/21 04:12:11;;;;;;;;;;;179.80;2252.80;;;;;;5053860;28;19955;-83
2022/11/21 04:14:37;;;;;;;;;;;179.80;2252.80;;;;;;5052885;28;20023;-84
2022/11/21 04:17:03;;;;;;;;;;;179.90;2252.80;;;;;;5052253;28;20348;-83
2022/11/21 04:19:28;;;;;;;;;;;179.90;2252.80;;;;;;5050821;28;19951;-83
2022/11/21 04:21:54;;;;;;;;;;;179.80;2252.80;;;;;;5046259;28;19951;-82
2022/11/21 04:24:19;;;;;;;;;;;179.80;2252.80;;;;;;5053280;28;19905;-83
2022/11/21 04:26:45;;;;;;;;;;;179.70;2252.80;;;;;;5051958;28;20010;-83
2022/11/21 04:29:11;;;;;;;;;;;179.80;2252.80;;;;;;5052622;28;19905;-83
2022/11/21 04:31:36;;;;;;;;;;;179.80;2252.80;;;;;;5052641;28;19909;-83
2022/11/21 04:34:02;;;;;;;;;;;179.80;2252.80;;;;;;5052912;28;19971;-83
2022/11/21 04:36:28;;;;;;;;;;;180.10;2252.80;;;;;;5053355;28;19904;-82
2022/11/21 04:38:53;;;;;;;;;;;204.80;2252.80;;;;;;5051948;28;19959;-83
2022/11/21 04:41:19;;;;;;;;;;;204.80;2252.80;;;;;;5038800;28;19919;-85
2022/11/21 04:43:45;;;;;;;;;;;204.80;2252.80;;;;;;5040103;28;20287;-83
2022/11/21 04:46:10;;;;;;;;;;;204.80;2252.80;;;;;;5055966;28;19904;-82
2022/11/21 04:48:36;;;;;;;;;;;204.80;2252.80;;;;;;5055566;28;19967;-83
2022/11/21 04:51:01;;;;;;;;;;;180.10;2252.80;;;;;;5056103;28;19927;-82
2022/11/21 04:53:27;;;;;;;;;;;204.80;2252.80;;;;;;5055400;28;19908;-84
2022/11/21 04:55:52;;;;;;;;;;;204.80;2252.80;;;;;;5055199;28;19905;-83
2022/11/21 04:58:18;;;;;;;;;;;204.80;2252.80;;;;;;5055082;28;19912;-83
2022/11/21 05:00:44;;;;;;;;;;;204.80;2252.80;;;;;;5055663;28;19923;-83
2022/11/21 05:03:09;;;;;;;;;;;204.80;2252.80;;;;;;5052204;28;20378;-83
2022/11/21 05:05:35;;;;;;;;;;;204.80;2252.80;;;;;;5046511;28;19915;-83
2022/11/21 05:08:00;;;;;;;;;;;204.80;2252.80;;;;;;5055858;28;19911;-84
2022/11/21 05:10:26;;;;;;;;;;;180.10;2252.80;;;;;;5055630;28;19924;-83
2022/11/21 05:15:40;;;;;;;;;;;180.10;2252.80;;;;;;5057585;28;20381;-83
2022/11/21 05:18:05;;;;;;;;;;;180.00;2252.80;;;;;;5055286;28;19916;-83
2022/11/21 05:20:31;;;;;;;;;;;180.00;2252.80;;;;;;5056796;28;20003;-83
2022/11/21 05:22:56;;;;;;;;;;;180.00;2252.80;;;;;;5056305;28;20285;-83
2022/11/21 05:25:22;;;;;;;;;;;180.00;2252.80;;;;;;5055747;28;19912;-83
2022/11/21 05:27:47;;;;;;;;;;;180.00;2252.80;;;;;;5054727;28;19944;-79
2022/11/21 05:30:13;;;;;;;;;;;180.10;2252.80;;;;;;5037898;28;19916;-79
2022/11/21 05:32:39;;;;;;;;;;;180.10;2252.80;;;;;;5035229;28;19958;-80
2022/11/21 05:35:06;;;;;;;;;;;204.80;2252.80;;;;;;5056680;28;19950;-83
2022/11/21 05:37:31;;;;;;;;;;;180.10;2252.80;;;;;;5045433;28;19959;-83
2022/11/21 05:39:57;;;;;;;;;;;180.10;2252.80;;;;;;5052206;28;20347;-82
2022/11/21 05:43:44;;;;;;;;;;;180.10;2252.80;;;;;;5050418;28;20369;-83
2022/11/21 05:45:08;;;;;;;;;;;180.10;2252.80;;;;;;5049977;28;19905;-84
2022/11/21 05:47:34;;;;;;;;;;;180.10;2252.80;;;;;;5055180;28;19905;-84
2022/11/21 05:49:59;;;;;;;;;;;180.00;2252.80;;;;;;5056113;28;19904;-83
2022/11/21 05:52:26;;;;;;;;;;;180.10;2252.80;;;;;;5055891;28;19963;-84
2022/11/21 05:54:52;;;;;;;;;;;180.10;2252.80;;;;;;5054537;28;19909;-83
2022/11/21 05:57:17;;;;;;;;;;;180.10;2252.80;;;;;;5056073;28;19912;-83
2022/11/21 05:59:43;;;;;;;;;;;179.90;2252.80;;;;;;5055765;28;19951;-83
2022/11/21 06:04:52;;;;;;;;;;;180.10;2252.80;;;;;;5056012;28;19912;-83
2022/11/21 06:07:18;;;;;;;;;;;180.10;2252.80;;;;;;5055776;28;19908;-83
2022/11/21 06:09:43;;;;;;;;;;;180.00;2252.80;;;;;;5055881;28;20003;-84
2022/11/21 06:12:09;;;;;;;;;;;180.10;2252.80;;;;;;5043712;28;20248;-83
2022/11/21 06:14:34;;;;;;;;;;;180.00;2252.80;;;;;;5052748;28;19974;-83
2022/11/21 06:17:00;;;;;;;;;;;180.00;2252.80;;;;;;5054562;28;19905;-82
2022/11/21 06:19:26;;;;;;;;;;;180.00;2252.80;;;;;;5054436;28;19909;-83
2022/11/21 06:21:51;;;;;;;;;;;180.00;2252.80;;;;;;5055647;28;20071;-82
2022/11/21 06:24:17;;;;;;;;;;;180.00;2252.80;;;;;;5055391;28;20347;-83
2022/11/21 06:26:42;;;;;;;;;;;180.10;2252.80;;;;;;5055898;28;19927;-83
2022/11/21 06:29:09;;;;;;;;;;;180.00;2252.80;;;;;;5054305;28;19995;-82
2022/11/21 06:31:35;;;;;;;;;;;180.00;2252.80;;;;;;5053979;28;20413;-82
2022/11/21 06:34:00;;;;;;;;;;;180.00;2252.80;;;;;;5054398;28;19948;-82
2022/11/21 06:36:26;;;;;;;;;;;180.00;2252.80;;;;;;5053744;28;19911;-80
2022/11/21 06:38:52;;;;;;;;;;;179.90;2252.80;;;;;;5054683;28;20275;-83
2022/11/21 06:41:19;;;;;;;;;;;180.00;2252.80;;;;;;5053029;28;19913;-82
2022/11/21 06:43:44;;;;;;;;;;;180.00;2252.80;;;;;;5033092;28;19912;-81
2022/11/21 06:46:10;;;;;;;;;;;180.00;2252.80;;;;;;5053494;28;19904;-78
2022/11/21 06:48:36;;;;;;;;;;;180.00;2252.80;;;;;;5053222;28;19909;-78
2022/11/21 06:51:14;;;;;;;;;;;180.00;2252.80;;;;;;5038379;28;19912;-78
2022/11/21 06:53:39;;;;;;;;;;;180.00;2252.80;;;;;;5042533;28;19912;-81
2022/11/21 06:56:05;;;;;;;;;;;180.00;2252.80;;;;;;5053189;28;19905;-81
2022/11/21 06:58:31;;;;;;;;;;;180.00;2252.80;;;;;;5054764;28;19913;-83
2022/11/21 07:00:56;;;;;;;;;;;180.00;2252.80;;;;;;5054055;28;20390;-79
2022/11/21 07:03:22;;;;;;;;;;;180.10;2252.80;;;;;;5054419;28;19905;-79
2022/11/21 07:05:48;;;;;;;;;;;180.10;2252.80;;;;;;5051627;28;19931;-79
2022/11/21 07:08:13;;;;;;;;;;;205.10;2252.80;;;;;;5045436;28;19909;-78
2022/11/21 07:10:39;;;;;;;;;;;180.00;2252.80;;;;;;5033872;28;19917;-79
2022/11/21 07:13:20;;;;;;;;;;;180.10;2252.80;;;;;;5039386;28;19959;-79
2022/11/21 07:15:47;;;;;;;;;;;180.00;2252.80;;;;;;5046384;28;19912;-78
2022/11/21 07:18:12;;;;;;;;;;;180.10;2252.80;;;;;;5030968;28;19912;-78
2022/11/21 07:20:39;;;;;;;;;;;180.10;2252.80;;;;;;5037373;28;20340;-77
2022/11/21 07:23:04;;;;;;;;;;;180.10;2252.80;;;;;;5051841;28;19912;-81
2022/11/21 07:25:30;;;;;;;;;;;180.10;2252.80;;;;;;5067796;28;20274;-82
2022/11/21 07:27:59;;;;;;;;;;;180.10;2252.80;;;;;;5060912;28;19904;-79
2022/11/21 07:30:24;;;;;;;;;;;180.10;2252.80;;;;;;5046682;28;19916;-79
2022/11/21 07:32:54;;;;;;;;;;;180.10;2252.80;;;;;;5051978;28;19908;-79
2022/11/21 07:35:20;;;;;;;;;;;180.10;2252.80;;;;;;5025095;28;20816;-83
2022/11/21 07:37:45;;;;;;;;;;;204.80;2252.80;;;;;;5053538;28;19971;-83
2022/11/21 07:40:11;;;;;;;;;;;204.80;2252.80;;;;;;5020324;28;20359;-82
2022/11/21 07:42:37;;;;;;;;;;;180.10;2252.80;;;;;;5036518;28;20318;-81
2022/11/21 07:45:03;;;;;;;;;;;204.90;2252.80;;;;;;5036828;28;19911;-81
2022/11/21 07:47:28;;;;;;;;;;;204.90;2252.80;;;;;;5016965;28;20307;-82
2022/11/21 07:49:54;;;;;;;;;;;205.00;2252.80;;;;;;5023022;28;20012;-83
2022/11/21 07:52:19;;;;;;;;;;;205.00;2252.80;;;;;;5032949;28;19905;-81
2022/11/21 07:54:45;;;;;;;;;;;204.80;2252.80;;;;;;5032929;28;19991;-82
2022/11/21 07:57:11;;;;;;;;;;;204.90;2252.80;;;;;;5047328;28;19905;-80
2022/11/21 07:59:37;;;;;;;;;;;205.00;2252.80;;;;;;5024809;28;20019;-84
2022/11/21 08:02:02;;;;;;;;;;;204.90;2252.80;;;;;;5052950;28;19917;-83
2022/11/21 08:04:28;;;;;;;;;;;204.90;2252.80;;;;;;5052005;28;19917;-83
2022/11/21 08:06:53;;;;;;;;;;;205.00;2252.80;;;;;;5053027;28;19916;-83
2022/11/21 08:09:19;;;;;;;;;;;205.10;2252.80;;;;;;5052042;28;19905;-79
2022/11/21 08:11:45;;;;;;;;;;;205.10;2252.80;;;;;;5036065;28;19958;-81
2022/11/21 08:14:10;;;;;;;;;;;205.10;2252.80;;;;;;5042422;28;20402;-84
2022/11/21 08:16:36;;;;;;;;;;;205.10;2252.80;;;;;;5050261;28;19912;-82
2022/11/21 08:19:02;;;;;;;;;;;205.10;2252.80;;;;;;5051115;28;19967;-82
2022/11/21 08:21:27;;;;;;;;;;;205.20;2252.80;;;;;;5047316;28;19944;-80
2022/11/21 08:23:53;;;;;;;;;;;205.20;2252.80;;;;;;5042863;28;20370;-81
2022/11/21 08:26:19;;;;;;;;;;;205.20;2252.80;;;;;;5052319;28;19999;-82
2022/11/21 08:28:45;;;;;;;;;;;205.00;2252.80;;;;;;5052202;28;19994;-81
2022/11/21 08:31:10;;;;;;;;;;;205.10;2252.80;;;;;;5051898;28;20377;-82
2022/11/21 08:33:36;;;;;;;;;;;205.10;2252.80;;;;;;5051857;28;19912;-80
2022/11/21 08:36:05;;;;;;;;;;;205.10;2252.80;;;;;;5051670;28;19912;-79
2022/11/21 08:38:31;;;;;;;;;;;205.00;2252.80;;;;;;5051627;28;20378;-79
2022/11/21 08:43:41;;;;;;;;;;;205.20;2252.80;;;;;;5038483;28;19921;-80
2022/11/21 08:46:07;;;;;;;;;;;205.30;2252.80;;;;;;5044546;28;19908;-80
2022/11/21 08:48:32;;;;;;;;;;;205.30;2252.80;;;;;;5051809;28;19912;-81
2022/11/21 08:50:58;;;;;;;;;;;205.30;2252.80;;;;;;5051024;28;19904;-76
2022/11/21 08:53:23;;;;;;;;;;;205.40;2252.80;;;;;;5051916;28;19909;-80
2022/11/21 08:55:49;;;;;;;;;;;205.40;2252.80;;;;;;5038128;28;20373;-81
2022/11/21 08:58:15;;;;;;;;;;;205.30;2252.80;;;;;;5050987;28;19912;-80
2022/11/21 09:00:40;;;;;;;;;;;205.40;2252.80;;;;;;5060183;28;19916;-80
2022/11/21 09:03:06;;;;;;;;;;;205.40;2252.80;;;;;;5047445;28;19959;-77
2022/11/21 09:05:32;;;;;;;;;;;205.40;2252.80;;;;;;5021004;28;19912;-84
2022/11/21 09:07:58;;;;;;;;;;;205.40;2252.80;;;;;;5072022;28;19930;-77
2022/11/21 09:10:24;;;;;;;;;;;205.50;2252.80;;;;;;5073274;28;20014;-77
2022/11/21 09:12:50;;;;;;;;;;;205.60;2252.80;;;;;;5054158;28;20367;-75
2022/11/21 09:18:03;;;;;;;;;;;205.60;2252.80;;;;;;5045116;28;20058;-76
2022/11/21 09:20:29;;;;;;;;;;;205.60;2252.80;;;;;;5060087;28;20399;-78
2022/11/21 09:22:55;;;;;;;;;;;205.50;2252.80;;;;;;5048715;28;19904;-79
2022/11/21 09:25:20;;;;;;;;;;;205.50;2252.80;;;;;;5034911;28;20370;-77
2022/11/21 09:27:46;;;;;;;;;;;205.60;2252.80;;;;;;5038670;28;20354;-80
2022/11/21 09:30:11;;;;;;;;;;;205.50;2252.80;;;;;;5046668;28;20017;-77
2022/11/21 09:32:39;;;;;;;;;;;205.50;2252.80;;;;;;5054318;28;19908;-80
2022/11/21 09:35:05;;;;;;;;;;;205.50;2252.80;;;;;;5058725;28;19963;-82
2022/11/21 09:37:35;;;;;;;;;;;205.60;2252.80;;;;;;5059344;28;19908;-84
2022/11/21 09:40:01;;;;;;;;;;;205.70;2252.80;;;;;;5044901;28;19920;-82
2022/11/21 09:43:02;;;;;;;;;;;205.70;2252.80;;;;;;5038706;28;19912;-83
2022/11/21 09:45:27;;;;;;;;;;;205.50;2252.80;;;;;;4996701;28;19906;-86
2022/11/21 09:47:54;;;;;;;;;;;205.60;2252.80;;;;;;5004271;28;19906;-82
2022/11/21 09:50:24;;;;;;;;;;;205.60;2252.80;;;;;;4972359;28;19906;-79
2022/11/21 09:53:02;;;;;;;;;;;205.70;2252.80;;;;;;4979049;28;20063;-79
2022/11/21 09:55:27;;;;;;;;;;;205.70;2252.80;;;;;;4978458;28;19913;-86
2022/11/21 09:57:54;;;;;;;;;;;230.40;2252.80;;;;;;5000251;28;19917;-81
2022/11/21 10:00:23;;;;;;;;;;;230.50;2252.80;;;;;;4998541;28;20439;-86
2022/11/21 10:02:49;;;;;;;;;;;230.60;2252.80;;;;;;4978903;28;19920;-80
2022/11/21 10:05:15;;;;;;;;;;;230.60;2252.80;;;;;;4994048;28;20000;-80
2022/11/21 10:07:41;;;;;;;;;;;230.60;2252.80;;;;;;4978226;28;19974;-81
2022/11/21 10:10:26;;;;;;;;;;;230.60;2252.80;;;;;;4988353;28;20000;-78
2022/11/21 10:13:11;;;;;;;;;;;230.60;2252.80;;;;;;4994943;28;19956;-78
2022/11/21 10:15:56;;;;;;;;;;;230.60;2252.80;;;;;;4955290;29;19961;-80
2022/11/21 10:18:40;;;;;;;;;;;230.60;2252.80;;;;;;4957871;28;20420;-77
2022/11/21 10:21:25;;;;;;;;;;;230.70;2252.80;;;;;;4980944;28;19906;-78
2022/11/21 10:23:53;;;;;;;;;;;230.70;2252.80;;;;;;4997442;28;19976;-80
2022/11/21 10:26:28;;;;;;;;;;;230.70;2252.80;;;;;;4997746;28;19959;-79
2022/11/21 10:28:58;;;;;;;;;;;230.70;2252.80;;;;;;4996175;28;19915;-80
2022/11/21 10:31:24;;;;;;;;;;;230.80;2252.80;;;;;;4997270;28;19916;-84
2022/11/21 10:33:51;;;;;;;;;;;230.80;2252.80;;;;;;4996977;28;19913;-79
2022/11/21 10:36:19;;;;;;;;;;;230.80;2252.80;;;;;;4996646;28;19961;-80
2022/11/21 10:38:49;;;;;;;;;;;230.90;2252.80;;;;;;4998601;28;20048;-80
2022/11/21 10:41:20;;;;;;;;;;;230.90;2252.80;;;;;;5002414;28;19993;-82
2022/11/21 10:46:59;;;;;;;;;;;231.00;2252.80;;;;;;5013233;28;20402;-78
2022/11/21 10:49:25;;;;;;;;;;;231.10;2252.80;;;;;;5013481;28;19909;-81
2022/11/21 10:51:56;;;;;;;;;;;231.00;2252.80;;;;;;5002172;28;19947;-80
2022/11/21 10:54:34;;;;;;;;;;;231.00;2252.80;;;;;;5057236;28;19955;-82
2022/11/21 10:56:59;;;;;;;;;;;231.00;2252.80;;;;;;5055227;28;20729;-79
2022/11/21 10:59:26;;;;;;;;;;;231.00;2252.80;;;;;;5074916;28;20352;-85
2022/11/21 11:02:19;;;;;;;;;;;231.10;2252.80;;;;;;5056489;28;20464;-80
2022/11/21 11:04:45;;;;;;;;;;;230.90;2252.80;;;;;;5056636;28;19904;-80
2022/11/21 11:07:20;;;;;;;;;;;231.00;2252.80;;;;;;5056930;28;19904;-79
2022/11/21 11:09:46;;;;;;;;;;;231.00;2252.80;;;;;;5052558;28;19955;-78
2022/11/21 11:15:22;;;;;;;;;;;231.10;2252.80;;;;;;5054232;28;19911;-86
2022/11/21 11:17:50;;;;;;;;;;;231.10;2252.80;;;;;;5066301;28;20023;-85
2022/11/21 11:20:34;;;;;;;;;;;231.00;2252.80;;;;;;5036787;28;19905;-81
2022/11/21 11:22:59;;;;;;;;;;;231.00;2252.80;;;;;;5067753;28;19976;-86
2022/11/21 11:25:25;;;;;;;;;;;231.10;2252.80;;;;;;5042452;28;19940;-82
2022/11/21 11:27:50;;;;;;;;;;;231.10;2252.80;;;;;;5045204;28;19991;-84
2022/11/21 11:30:18;;;;;;;;;;;231.30;2252.80;;;;;;5050559;28;19905;-86
2022/11/21 11:32:44;;;;;;;;;;;256.00;2252.80;;;;;;5044456;28;19962;-86
2022/11/21 11:35:15;;;;;;;;;;;256.10;2252.80;;;;;;5040133;28;20306;-78
2022/11/21 11:37:42;;;;;;;;;;;256.00;2252.80;;;;;;5045088;28;19931;-84
2022/11/21 11:40:14;;;;;;;;;;;231.30;2252.80;;;;;;5056167;28;19973;-80
2022/11/21 11:48:09;;;;;;;;;;;231.30;2252.80;;;;;;5053946;28;19912;-82
2022/11/21 11:50:41;;;;;;;;;;;256.00;2252.80;;;;;;5037027;28;20347;-78
2022/11/21 11:53:06;;;;;;;;;;;256.10;2252.80;;;;;;5064705;28;20381;-79
2022/11/21 11:55:35;;;;;;;;;;;256.00;2252.80;;;;;;5053816;28;19992;-81
2022/11/21 11:58:02;;;;;;;;;;;256.10;2252.80;;;;;;5048735;28;19942;-79
2022/11/21 12:00:46;;;;;;;;;;;256.10;2252.80;;;;;;5053583;28;20294;-81
2022/11/21 12:03:25;;;;;;;;;;;256.10;2252.80;;;;;;5035798;28;19952;-79
2022/11/21 12:05:53;;;;;;;;;;;256.00;2252.80;;;;;;5035610;28;19905;-80
2022/11/21 12:08:25;;;;;;;;;;;256.00;2252.80;;;;;;5036182;28;20269;-83
2022/11/21 12:13:40;;;;;;;;;;;231.30;2252.80;;;;;;5054019;28;19912;-83
2022/11/21 12:16:09;;;;;;;;;;;231.30;2252.80;;;;;;5050766;28;19904;-85
2022/11/21 12:18:54;;;;;;;;;;;231.20;2252.80;;;;;;5072647;28;20358;-83
2022/11/21 12:21:20;;;;;;;;;;;231.20;2252.80;;;;;;5052741;28;19920;-84
2022/11/21 12:23:50;;;;;;;;;;;231.10;2252.80;;;;;;5035431;28;19904;-81
2022/11/21 12:26:34;;;;;;;;;;;231.10;2252.80;;;;;;5036156;28;19949;-81
2022/11/21 12:29:23;;;;;;;;;;;231.10;2252.80;;;;;;5055780;28;19911;-78
2022/11/21 12:31:56;;;;;;;;;;;231.00;2252.80;;;;;;4957690;28;19910;-80
2022/11/21 12:34:21;;;;;;;;;;;231.10;2252.80;;;;;;4956371;28;19910;-80
2022/11/21 12:37:10;;;;;;;;;;;231.10;2252.80;;;;;;4972362;28;20419;-81
2022/11/21 12:39:41;;;;;;;;;;;231.10;2252.80;;;;;;4917757;29;20061;-78
2022/11/21 12:45:06;;;;;;;;;;;231.10;2252.80;;;;;;4915027;29;19914;-81
2022/11/21 12:54:28;;;;;;;;;;;231.10;2252.80;;;;;;4930870;29;19908;-78
2022/11/21 12:56:10;;;;;;;;;;;231.20;2252.80;;;;;;4822139;29;19919;-77
2022/11/21 12:58:38;;;;;;;;;;;231.20;2252.80;;;;;;4836850;29;19917;-82
2022/11/21 13:01:12;;;;;;;;;;;231.10;2252.80;;;;;;4815181;29;19964;-79
2022/11/21 13:03:44;;;;;;;;;;;231.10;2252.80;;;;;;4804053;29;20048;-80
2022/11/21 13:06:22;;;;;;;;;;;231.20;2252.80;;;;;;4791352;29;20369;-78
2022/11/21 13:08:50;;;;;;;;;;;231.20;2252.80;;;;;;4817451;29;19916;-78
2022/11/21 13:14:10;;;;;;;;;;;231.30;2252.80;;;;;;4843255;29;19915;-77
2022/11/21 13:16:38;;;;;;;;;;;231.30;2252.80;;;;;;4886196;29;19989;-78
2022/11/21 13:19:19;;;;;;;;;;;256.00;2252.80;;;;;;4926332;29;19915;-77
2022/11/21 13:21:48;;;;;;;;;;;256.00;2252.80;;;;;;4935869;29;19918;-78
2022/11/21 13:24:32;;;;;;;;;;;256.00;2252.80;;;;;;4937164;29;19936;-76
2022/11/21 13:26:57;;;;;;;;;;;256.00;2252.80;;;;;;4917703;29;19907;-76
2022/11/21 13:29:23;;;;;;;;;;;256.00;2252.80;;;;;;4933273;29;19907;-88
2022/11/21 13:31:49;;;;;;;;;;;231.20;2252.80;;;;;;4927102;29;20007;-78
2022/11/21 13:34:29;;;;;;;;;;;231.30;2252.80;;;;;;5043551;28;20009;-77
2022/11/21 13:36:55;;;;;;;;;;;231.30;2252.80;;;;;;5055479;28;19905;-78
2022/11/21 13:39:24;;;;;;;;;;;256.00;2252.80;;;;;;5039534;28;19917;-77
2022/11/21 13:44:40;;;;;;;;;;;256.00;2252.80;;;;;;5076150;28;20301;-77
2022/11/21 13:47:08;;;;;;;;;;;256.00;2252.80;;;;;;5075318;28;20362;-77
2022/11/21 13:49:53;;;;;;;;;;;256.00;2252.80;;;;;;5057335;28;19909;-76
2022/11/21 13:52:18;;;;;;;;;;;256.00;2252.80;;;;;;5030793;28;19905;-77
2022/11/21 13:54:44;;;;;;;;;;;256.00;2252.80;;;;;;5075108;28;19915;-77
2022/11/21 13:57:12;;;;;;;;;;;256.00;2252.80;;;;;;5075597;28;19908;-83
2022/11/21 13:59:42;;;;;;;;;;;256.10;2252.80;;;;;;5056839;28;20014;-77
2022/11/21 14:02:30;;;;;;;;;;;256.10;2252.80;;;;;;5075082;28;19916;-76
2022/11/21 14:04:56;;;;;;;;;;;256.10;2252.80;;;;;;5046397;28;19904;-79
2022/11/21 14:07:23;;;;;;;;;;;256.10;2252.80;;;;;;5074890;28;19967;-77
2022/11/21 14:09:50;;;;;;;;;;;256.10;2252.80;;;;;;5056626;28;19912;-77
2022/11/21 14:12:23;;;;;;;;;;;256.10;2252.80;;;;;;5056469;28;19911;-78
2022/11/21 14:14:53;;;;;;;;;;;256.00;2252.80;;;;;;5057672;28;19927;-80
2022/11/21 14:17:25;;;;;;;;;;;256.00;2252.80;;;;;;5055963;28;20351;-80
2022/11/21 14:19:53;;;;;;;;;;;256.00;2252.80;;;;;;5075374;28;20374;-78
2022/11/21 14:22:38;;;;;;;;;;;231.30;2252.80;;;;;;5056593;28;19904;-80
2022/11/21 14:25:09;;;;;;;;;;;231.30;2252.80;;;;;;5074243;28;19911;-77